createdAt,value
2022-08-09T00:01:00.463Z,4.80
2022-08-09T00:04:03.731Z,5.00
2022-08-09T00:06:22.870Z,5.50
2022-08-09T00:08:53.312Z,6.00
2022-08-09T00:11:55.038Z,5.80
2022-08-09T00:14:21.745Z,6.10
2022-08-09T00:16:56.890Z,5.80
2022-08-09T00:19:27.582Z,4.60
2022-08-09T00:21:57.147Z,5.90
2022-08-09T00:24:27.197Z,6.90
2022-08-09T00:26:57.327Z,5.30
2022-08-09T00:29:39.594Z,5.90
2022-08-09T00:32:25.689Z,6.30
2022-08-09T00:34:56.430Z,7.00
2022-08-09T00:37:25.585Z,5.10
2022-08-09T00:40:12.078Z,7.50
2022-08-09T00:44:20.323Z,5.90
2022-08-09T00:45:35.178Z,7.20
2022-08-09T00:48:05.781Z,7.00
2022-08-09T00:50:37.835Z,6.40
2022-08-09T00:53:10.116Z,6.40
2022-08-09T00:56:04.438Z,6.70
2022-08-09T00:58:30.656Z,6.50
2022-08-09T01:01:00.901Z,6.30
2022-08-09T01:03:40.850Z,6.50
2022-08-09T01:06:25.523Z,6.50
2022-08-09T01:09:13.688Z,5.80
2022-08-09T01:11:59.019Z,6.50
2022-08-09T01:14:34.621Z,6.30
2022-08-09T01:17:11.608Z,6.80
2022-08-09T01:20:02.310Z,6.40
2022-08-09T01:24:03.466Z,6.80
2022-08-09T01:26:24.865Z,6.70
2022-08-09T01:28:57.144Z,6.50
2022-08-09T01:32:30.801Z,7.90
2022-08-09T01:34:22.199Z,6.10
2022-08-09T01:36:52.498Z,6.00
2022-08-09T01:39:23.306Z,6.20
2022-08-09T01:41:53.639Z,7.00
2022-08-09T01:44:28.110Z,6.20
2022-08-09T01:46:57.701Z,6.00
2022-08-09T01:49:39.102Z,6.50
2022-08-09T01:52:14.520Z,7.10
2022-08-09T01:57:17.315Z,7.10
2022-08-09T01:59:53.472Z,7.10
2022-08-09T02:02:33.208Z,6.70
2022-08-09T02:05:15.375Z,7.20
2022-08-09T02:08:40.053Z,7.40
2022-08-09T02:10:41.069Z,7.70
2022-08-09T02:13:13.949Z,7.40
2022-08-09T02:15:50.253Z,6.90
2022-08-09T02:18:23.597Z,7.20
2022-08-09T02:20:58.860Z,5.80
2022-08-09T02:23:42.767Z,6.50
2022-08-09T02:26:26.994Z,6.40
2022-08-09T02:28:59.990Z,7.70
2022-08-09T02:31:34.214Z,6.90
2022-08-09T02:34:13.844Z,6.90
2022-08-09T02:37:03.299Z,7.60
2022-08-09T02:39:42.821Z,7.10
2022-08-09T02:42:18.330Z,7.60
2022-08-09T02:44:50.246Z,6.40
2022-08-09T02:47:22.116Z,8.50
2022-08-09T02:50:01.360Z,7.60
2022-08-09T02:52:37.843Z,8.00
2022-08-09T02:55:20.102Z,7.10
2022-08-09T02:58:00.399Z,6.10
2022-08-09T03:00:58.093Z,6.30
2022-08-09T03:04:05.812Z,8.70
2022-08-09T03:06:21.420Z,5.90
2022-08-09T03:08:53.023Z,7.80
2022-08-09T03:12:04.757Z,8.60
2022-08-09T03:14:13.538Z,6.90
2022-08-09T03:16:47.755Z,6.60
2022-08-09T03:19:59.205Z,7.80
2022-08-09T03:22:11.850Z,8.70
2022-08-09T03:24:52.719Z,7.20
2022-08-09T03:27:44.692Z,7.70
2022-08-09T03:30:33.431Z,7.30
2022-08-09T03:33:17.289Z,8.30
2022-08-09T03:36:13.618Z,6.40
2022-08-09T03:38:42.446Z,7.10
2022-08-09T03:41:15.592Z,7.90
2022-08-09T03:44:03.535Z,7.50
2022-08-09T03:46:35.720Z,7.40
2022-08-09T03:49:08.744Z,7.60
2022-08-09T03:51:43.736Z,8.30
2022-08-09T03:54:31.132Z,7.80
2022-08-09T03:57:04.547Z,8.30
2022-08-09T03:59:53.277Z,8.50
2022-08-09T04:02:27.966Z,8.80
2022-08-09T04:05:05.055Z,7.00
2022-08-09T04:07:52.958Z,7.50
2022-08-09T04:10:29.099Z,7.30
2022-08-09T04:13:01.209Z,6.60
2022-08-09T04:16:18.613Z,6.10
2022-08-09T04:18:22.207Z,6.70
2022-08-09T04:20:54.442Z,7.50
2022-08-09T04:23:25.016Z,7.80
2022-08-09T04:25:55.637Z,8.20
2022-08-09T04:28:34.315Z,7.70
2022-08-09T04:31:09.457Z,7.70
2022-08-09T04:33:52.381Z,8.10
2022-08-09T04:36:27.269Z,7.10
2022-08-09T04:38:59.299Z,8.40
2022-08-09T04:41:32.856Z,6.80
2022-08-09T04:44:06.511Z,8.60
2022-08-09T04:46:59.062Z,8.10
2022-08-09T04:49:53.653Z,7.90
2022-08-09T04:52:26.982Z,9.10
2022-08-09T04:54:58.801Z,6.70
2022-08-09T04:57:53.767Z,8.20
2022-08-09T05:00:18.705Z,7.20
2022-08-09T05:02:48.605Z,8.60
2022-08-09T05:05:32.413Z,7.10
2022-08-09T05:08:13.847Z,9.40
2022-08-09T05:10:45.052Z,7.60
2022-08-09T05:13:14.582Z,8.10
2022-08-09T05:15:52.083Z,7.40
2022-08-09T05:18:38.009Z,9.20
2022-08-09T05:21:23.187Z,7.90
2022-08-09T05:24:00.883Z,7.60
2022-08-09T05:26:36.355Z,7.10
2022-08-09T05:29:06.412Z,10.30
2022-08-09T05:31:45.049Z,9.20
2022-08-09T05:34:18.070Z,10.90
2022-08-09T05:36:47.535Z,8.60
2022-08-09T05:39:28.811Z,8.80
2022-08-09T05:42:01.696Z,7.60
2022-08-09T05:44:34.847Z,8.20
2022-08-09T05:47:05.784Z,7.50
2022-08-09T05:50:25.930Z,8.20
2022-08-09T05:52:24.813Z,6.90
2022-08-09T05:54:53.784Z,7.70
2022-08-09T05:57:25.178Z,6.20
2022-08-09T06:00:14.672Z,8.70
2022-08-09T06:02:46.830Z,6.80
2022-08-09T06:05:16.319Z,7.50
2022-08-09T06:08:04.975Z,7.20
2022-08-09T06:10:40.077Z,7.10
2022-08-09T06:13:18.579Z,7.40
2022-08-09T06:15:51.753Z,6.60
2022-08-09T06:18:24.973Z,6.60
2022-08-09T06:20:57.607Z,6.40
2022-08-09T06:23:58.084Z,7.60
2022-08-09T06:26:22.405Z,5.90
2022-08-09T06:28:59.362Z,7.10
2022-08-09T06:31:39.173Z,7.50
2022-08-09T06:34:09.610Z,7.20
2022-08-09T06:36:42.877Z,5.70
2022-08-09T06:39:13.006Z,6.50
2022-08-09T06:42:09.122Z,7.50
2022-08-09T06:44:32.269Z,6.70
2022-08-09T06:47:02.298Z,6.80
2022-08-09T06:50:11.852Z,6.40
2022-08-09T06:52:20.253Z,5.60
2022-08-09T06:54:54.086Z,6.30
2022-08-09T06:57:25.897Z,6.00
2022-08-09T07:00:49.456Z,5.80
2022-08-09T07:03:05.981Z,5.80
2022-08-09T07:05:58.522Z,6.40
2022-08-09T07:08:24.861Z,6.20
2022-08-09T07:10:54.019Z,6.20
2022-08-09T07:13:28.266Z,5.70
2022-08-09T07:16:42.563Z,7.40
2022-08-09T07:18:50.159Z,6.70
2022-08-09T07:21:19.979Z,7.20
2022-08-09T07:23:57.711Z,6.60
2022-08-09T07:26:28.746Z,6.70
2022-08-09T07:29:09.264Z,7.10
2022-08-09T07:31:45.187Z,6.10
2022-08-09T07:34:20.517Z,5.60
2022-08-09T07:36:50.127Z,7.10
2022-08-09T07:39:40.452Z,6.60
2022-08-09T07:42:10.883Z,6.00
2022-08-09T07:44:52.043Z,5.90
2022-08-09T07:47:23.143Z,6.20
2022-08-09T07:50:07.959Z,5.60
2022-08-09T07:52:40.738Z,6.20
2022-08-09T07:55:12.317Z,5.20
2022-08-09T07:57:46.801Z,5.50
2022-08-09T08:00:35.412Z,6.60
2022-08-09T08:03:08.316Z,6.90
2022-08-09T08:05:53.646Z,6.90
2022-08-09T08:09:02.217Z,5.60
2022-08-09T08:12:11.321Z,6.50
2022-08-09T08:14:04.904Z,7.60
2022-08-09T08:16:36.002Z,6.50
2022-08-09T08:19:08.654Z,6.20
2022-08-09T08:21:39.496Z,5.50
2022-08-09T08:24:11.414Z,6.70
2022-08-09T08:26:55.099Z,7.50
2022-08-09T08:29:27.689Z,4.90
2022-08-09T08:32:03.182Z,5.40
2022-08-09T08:34:34.738Z,5.80
2022-08-09T08:37:05.993Z,5.70
2022-08-09T08:39:44.345Z,7.00
2022-08-09T08:42:14.036Z,6.10
2022-08-09T08:44:46.638Z,6.20
2022-08-09T08:47:15.823Z,4.70
2022-08-09T08:49:46.773Z,6.00
2022-08-09T08:52:57.457Z,5.40
2022-08-09T08:55:10.587Z,5.50
2022-08-09T08:57:39.582Z,6.50
2022-08-09T09:00:17.190Z,5.40
2022-08-09T09:03:08.799Z,6.50
2022-08-09T09:06:00.810Z,6.80
2022-08-09T09:08:37.865Z,7.10
2022-08-09T09:11:13.825Z,8.00
2022-08-09T09:13:55.188Z,6.50
2022-08-09T09:16:31.891Z,6.40
2022-08-09T09:22:03.663Z,6.30
2022-08-09T09:24:37.237Z,5.10
2022-08-09T09:27:09.739Z,4.90
2022-08-09T09:30:13.871Z,6.00
2022-08-09T09:33:02.626Z,4.90
2022-08-09T09:36:00.638Z,6.00
2022-08-09T09:38:46.566Z,5.30
2022-08-09T09:41:49.702Z,6.50
2022-08-09T09:44:31.516Z,5.30
2022-08-09T09:47:07.699Z,6.00
2022-08-09T09:50:07.075Z,4.90
2022-08-09T09:52:35.919Z,4.20
2022-08-09T09:55:23.845Z,4.50
2022-08-09T09:58:16.975Z,6.80
2022-08-09T10:00:54.707Z,4.80
2022-08-09T10:03:57.289Z,5.10
2022-08-09T10:06:31.944Z,4.50
2022-08-09T10:09:21.897Z,6.00
2022-08-09T10:12:12.020Z,3.80
2022-08-09T10:14:48.445Z,5.10
2022-08-09T10:17:40.004Z,4.60
2022-08-09T10:20:32.875Z,4.40
2022-08-09T10:23:20.268Z,4.50
2022-08-09T10:28:40.134Z,4.50
2022-08-09T10:34:10.615Z,5.60
2022-08-09T10:36:53.834Z,4.80
2022-08-09T10:39:28.446Z,5.20
2022-08-09T10:41:57.982Z,4.70
2022-08-09T10:44:30.172Z,3.80
2022-08-09T10:48:19.450Z,4.00
2022-08-09T10:50:31.198Z,3.90
2022-08-09T10:53:10.327Z,5.10
2022-08-09T10:55:58.134Z,5.10
2022-08-09T10:58:33.665Z,3.70
2022-08-09T11:03:06.571Z,4.00
2022-08-09T11:04:30.968Z,5.20
2022-08-09T11:07:57.007Z,4.80
2022-08-09T11:10:54.359Z,4.70
2022-08-09T11:13:54.073Z,4.80
2022-08-09T11:16:38.250Z,4.00
2022-08-09T11:19:10.361Z,4.00
2022-08-09T11:22:05.515Z,4.00
2022-08-09T11:25:08.237Z,5.10
2022-08-09T11:28:05.637Z,4.40
2022-08-09T11:30:35.633Z,4.80
2022-08-09T11:33:09.589Z,5.70
2022-08-09T11:35:50.271Z,4.60
2022-08-09T11:38:32.015Z,5.80
2022-08-09T11:41:27.857Z,5.00
2022-08-09T11:44:08.162Z,10.10
2022-08-09T11:46:54.557Z,8.60
2022-08-09T11:50:56.995Z,6.30
2022-08-09T11:53:44.041Z,6.50
2022-08-09T11:56:34.377Z,7.70
2022-08-09T11:59:23.788Z,7.30
2022-08-09T12:02:34.483Z,7.40
2022-08-09T12:04:58.768Z,5.30
2022-08-09T12:07:41.200Z,3.20
2022-08-09T12:10:31.927Z,3.70
2022-08-09T12:13:03.669Z,4.80
2022-08-09T12:15:52.342Z,5.20
2022-08-09T12:18:26.219Z,3.30
2022-08-09T12:21:02.754Z,3.80
2022-08-09T12:23:56.216Z,3.30
2022-08-09T12:26:25.627Z,4.30
2022-08-09T12:29:11.408Z,4.30
2022-08-09T12:32:02.781Z,4.20
2022-08-09T12:34:37.734Z,4.40
2022-08-09T12:37:24.216Z,4.60
2022-08-09T12:40:01.790Z,3.10
2022-08-09T12:42:31.368Z,3.10
2022-08-09T12:45:00.831Z,3.60
2022-08-09T12:47:32.873Z,3.30
2022-08-09T12:50:17.231Z,3.80
2022-08-09T12:53:17.814Z,3.70
2022-08-09T12:56:12.653Z,4.10
2022-08-09T12:58:28.596Z,4.00
2022-08-09T13:00:58.316Z,3.10
2022-08-09T13:03:57.269Z,3.00
2022-08-09T13:06:33.959Z,3.00
2022-08-09T13:09:10.361Z,4.20
2022-08-09T13:11:44.036Z,3.90
2022-08-09T13:14:43.893Z,2.60
2022-08-09T13:17:08.421Z,3.30
2022-08-09T13:20:11.303Z,2.90
2022-08-09T13:22:38.314Z,3.20
2022-08-09T13:25:15.008Z,3.60
2022-08-09T13:27:54.471Z,3.10
2022-08-09T13:30:50.035Z,3.20
2022-08-09T13:33:22.966Z,4.00
2022-08-09T13:36:37.414Z,3.10
2022-08-09T13:38:56.556Z,2.80
2022-08-09T13:41:59.395Z,2.70
2022-08-09T13:44:17.755Z,2.70
2022-08-09T13:47:29.744Z,4.50
2022-08-09T13:49:55.716Z,2.20
2022-08-09T13:52:25.865Z,2.60
2022-08-09T13:55:00.588Z,3.80
2022-08-09T13:57:40.236Z,2.90
2022-08-09T14:00:15.556Z,3.00
2022-08-09T14:03:03.154Z,2.60
2022-08-09T14:06:00.033Z,3.50
2022-08-09T14:08:23.349Z,3.70
2022-08-09T14:10:53.501Z,2.30
2022-08-09T14:14:14.919Z,2.80
2022-08-09T14:16:15.367Z,2.30
2022-08-09T14:18:49.678Z,3.50
2022-08-09T14:21:22.574Z,1.80
2022-08-09T14:23:56.546Z,3.90
2022-08-09T14:26:30.597Z,3.50
2022-08-09T14:29:07.814Z,3.20
2022-08-09T14:31:54.867Z,2.40
2022-08-09T14:34:31.537Z,2.80
2022-08-09T14:37:06.920Z,2.90
2022-08-09T14:42:30.530Z,4.10
2022-08-09T14:46:45.958Z,2.80
2022-08-09T14:48:02.374Z,3.00
2022-08-09T14:50:34.288Z,3.60
2022-08-09T14:53:06.157Z,3.40
2022-08-09T14:55:35.448Z,3.20
2022-08-09T14:58:05.317Z,3.10
2022-08-09T15:00:36.482Z,3.60
2022-08-09T15:03:08.787Z,2.50
2022-08-09T15:05:39.935Z,3.40
2022-08-09T15:08:19.409Z,3.30
2022-08-09T15:11:00.704Z,2.20
2022-08-09T15:13:48.133Z,3.00
2022-08-09T15:16:22.622Z,2.60
2022-08-09T15:18:52.279Z,3.70
2022-08-09T15:21:56.349Z,3.60
2022-08-09T15:24:12.996Z,3.90
2022-08-09T15:26:46.814Z,3.80
2022-08-09T15:30:59.980Z,3.30
2022-08-09T15:32:06.272Z,4.20
2022-08-09T15:34:55.388Z,3.90
2022-08-09T15:37:57.387Z,4.50
2022-08-09T15:40:32.321Z,4.10
2022-08-09T15:43:02.655Z,2.80
2022-08-09T15:46:07.382Z,3.60
2022-08-09T15:48:28.743Z,4.60
2022-08-09T15:50:59.668Z,4.60
2022-08-09T15:54:03.801Z,4.50
2022-08-09T15:56:23.400Z,3.30
2022-08-09T15:58:58.497Z,4.50
2022-08-09T16:01:27.451Z,3.70
2022-08-09T16:04:00.547Z,4.50
2022-08-09T16:06:35.435Z,3.90
2022-08-09T16:09:06.810Z,4.10
2022-08-09T16:11:35.717Z,3.00
2022-08-09T16:14:08.008Z,4.20
2022-08-09T16:16:39.078Z,3.40
2022-08-09T16:19:13.461Z,2.70
2022-08-09T16:21:48.515Z,4.20
2022-08-09T16:27:04.975Z,3.50
2022-08-09T16:29:38.004Z,3.90
2022-08-09T16:32:34.463Z,4.00
2022-08-09T16:35:05.448Z,5.00
2022-08-09T16:37:54.756Z,3.80
2022-08-09T16:40:39.859Z,5.00
2022-08-09T16:43:10.429Z,3.30
2022-08-09T16:45:43.693Z,3.40
2022-08-09T16:48:40.748Z,3.80
2022-08-09T16:51:08.294Z,3.40
2022-08-09T16:54:09.029Z,4.40
2022-08-09T16:56:32.908Z,3.60
2022-08-09T16:59:06.702Z,3.30
2022-08-09T17:01:43.861Z,3.20
2022-08-09T17:04:26.019Z,3.20
2022-08-09T17:08:40.190Z,4.50
2022-08-09T17:09:47.806Z,4.00
2022-08-09T17:12:18.964Z,3.80
2022-08-09T17:14:49.930Z,3.50
2022-08-09T17:17:27.047Z,4.00
2022-08-09T17:20:28.496Z,3.20
2022-08-09T17:22:50.047Z,3.10
2022-08-09T17:25:20.181Z,3.70
2022-08-09T17:27:53.847Z,4.70
2022-08-09T17:30:26.407Z,4.00
2022-08-09T17:33:04.699Z,4.50
2022-08-09T17:35:36.033Z,4.50
2022-08-09T17:38:13.971Z,4.50
2022-08-09T17:40:58.962Z,6.10
2022-08-09T17:43:33.843Z,4.40
2022-08-09T17:46:09.133Z,4.90
2022-08-09T17:48:40.509Z,3.70
2022-08-09T17:51:21.932Z,5.10
2022-08-09T17:53:54.934Z,6.00
2022-08-09T17:56:27.885Z,5.50
2022-08-09T17:59:00.794Z,5.10
2022-08-09T18:02:03.430Z,5.30
2022-08-09T18:04:20.280Z,5.10
2022-08-09T18:06:54.487Z,5.90
2022-08-09T18:09:40.481Z,6.20
2022-08-09T18:12:15.039Z,5.30
2022-08-09T18:14:49.816Z,4.80
2022-08-09T18:17:27.599Z,4.20
2022-08-09T18:20:54.928Z,3.80
2022-08-09T18:23:05.755Z,4.40
2022-08-09T18:25:50.301Z,4.40
2022-08-09T18:30:35.571Z,5.30
2022-08-09T18:31:13.088Z,5.00
2022-08-09T18:33:45.197Z,4.90
2022-08-09T18:36:32.017Z,7.50
2022-08-09T18:39:03.260Z,5.00
2022-08-09T18:41:34.334Z,5.30
2022-08-09T18:44:13.275Z,6.20
2022-08-09T18:46:51.308Z,4.10
2022-08-09T18:49:41.667Z,4.80
2022-08-09T18:52:13.341Z,3.70
2022-08-09T18:54:52.635Z,4.40
2022-08-09T18:57:23.851Z,4.90
2022-08-09T18:59:57.639Z,4.00
2022-08-09T19:02:30.627Z,4.90
2022-08-09T19:05:04.313Z,5.30
2022-08-09T19:08:04.515Z,3.30
2022-08-09T19:10:37.882Z,4.20
2022-08-09T19:13:16.533Z,4.60
2022-08-09T19:15:52.843Z,4.00
2022-08-09T19:18:33.368Z,4.40
2022-08-09T19:21:09.604Z,5.50
2022-08-09T19:24:32.714Z,4.40
2022-08-09T19:26:32.606Z,3.90
2022-08-09T19:29:15.064Z,4.30
2022-08-09T19:31:49.402Z,4.10
2022-08-09T19:34:24.365Z,5.00
2022-08-09T19:36:54.856Z,3.90
2022-08-09T19:39:28.893Z,4.00
2022-08-09T19:42:14.635Z,4.00
2022-08-09T19:44:49.409Z,3.90
2022-08-09T19:47:23.721Z,4.80
2022-08-09T19:50:09.149Z,5.10
2022-08-09T19:52:51.902Z,4.90
2022-08-09T19:55:25.766Z,3.90
2022-08-09T19:58:16.743Z,4.00
2022-08-09T20:00:46.463Z,4.20
2022-08-09T20:04:17.373Z,4.40
2022-08-09T20:06:05.665Z,5.60
2022-08-09T20:08:56.745Z,5.20
2022-08-09T20:11:27.121Z,5.60
2022-08-09T20:14:02.910Z,4.70
2022-08-09T20:16:50.267Z,4.90
2022-08-09T20:19:48.424Z,4.80
2022-08-09T20:22:14.541Z,5.60
2022-08-09T20:24:54.061Z,4.90
2022-08-09T20:27:23.683Z,5.10
2022-08-09T20:29:52.639Z,5.00
2022-08-09T20:32:30.830Z,4.20
2022-08-09T20:35:02.334Z,5.40
2022-08-09T20:38:19.748Z,4.10
2022-08-09T20:40:27.185Z,5.00
2022-08-09T20:42:59.874Z,5.00
2022-08-09T20:45:59.800Z,4.80
2022-08-09T20:48:21.379Z,5.60
2022-08-09T20:50:55.800Z,5.10
2022-08-09T20:53:37.058Z,4.90
2022-08-09T20:56:09.346Z,5.30
2022-08-09T20:58:54.248Z,5.00
2022-08-09T21:01:35.351Z,5.60
2022-08-09T21:05:52.141Z,5.50
2022-08-09T21:07:13.240Z,5.70
2022-08-09T21:09:56.869Z,5.10
2022-08-09T21:15:23.881Z,4.90
2022-08-09T21:18:21.642Z,4.60
2022-08-09T21:20:54.496Z,4.70
2022-08-09T21:23:36.067Z,5.10
2022-08-09T21:26:15.410Z,4.10
2022-08-09T21:28:51.800Z,3.90
2022-08-09T21:31:49.137Z,3.50
2022-08-09T21:34:21.055Z,4.00
2022-08-09T21:36:58.050Z,3.00
2022-08-09T21:39:28.303Z,3.30
2022-08-09T21:42:11.688Z,3.20
2022-08-09T21:44:42.620Z,2.50
2022-08-09T21:47:17.548Z,3.00
2022-08-09T21:52:20.278Z,1.70
2022-08-09T21:55:03.512Z,3.10
2022-08-09T21:57:38.815Z,2.90
2022-08-09T22:00:31.813Z,2.70
2022-08-09T22:03:04.614Z,2.30
2022-08-09T22:05:37.563Z,3.30
2022-08-09T22:08:14.807Z,2.30
2022-08-09T22:11:04.807Z,1.80
2022-08-09T22:13:35.640Z,2.20
2022-08-09T22:16:08.526Z,2.50
2022-08-09T22:18:52.180Z,1.80
2022-08-09T22:21:24.490Z,2.00
2022-08-09T22:23:59.025Z,1.80
2022-08-09T22:26:35.324Z,3.00
2022-08-09T22:29:09.126Z,2.70
2022-08-09T22:31:50.390Z,2.50
2022-08-09T22:34:27.074Z,2.20
2022-08-09T22:36:57.436Z,1.90
2022-08-09T22:39:55.383Z,2.30
2022-08-09T22:42:22.016Z,2.40
2022-08-09T22:48:04.533Z,2.40
2022-08-09T22:48:12.788Z,1.80
2022-08-09T22:50:32.062Z,1.70
2022-08-09T22:53:03.231Z,2.00
2022-08-09T22:56:06.314Z,1.90
2022-08-09T22:58:33.078Z,2.70
2022-08-09T23:01:03.698Z,2.10
2022-08-09T23:04:05.628Z,2.10
2022-08-09T23:06:35.430Z,2.20
2022-08-09T23:09:07.159Z,2.90
2022-08-09T23:11:36.210Z,2.20
2022-08-09T23:14:09.995Z,2.50
2022-08-09T23:16:39.383Z,2.60
2022-08-09T23:19:08.264Z,1.90
2022-08-09T23:21:38.545Z,2.60
2022-08-09T23:24:09.120Z,2.00
2022-08-09T23:26:39.141Z,2.10
2022-08-09T23:29:10.894Z,2.10
2022-08-09T23:31:40.314Z,2.30
2022-08-09T23:34:09.320Z,2.50
2022-08-09T23:36:38.295Z,2.10
2022-08-09T23:39:07.635Z,2.00
2022-08-09T23:41:36.680Z,2.70
2022-08-09T23:44:05.885Z,2.10
2022-08-09T23:46:34.760Z,2.80
2022-08-09T23:49:03.865Z,1.90
2022-08-09T23:51:32.652Z,1.80
2022-08-09T23:54:02.717Z,2.90
2022-08-09T23:56:52.833Z,2.00
2022-08-09T23:59:23.191Z,2.00
